Syosyun — JD2406 — position and weather

sailwx.info

Track history (hours):
 
Tides and Currents Weather Stations Pressure Air Temp Water Temp Dewpoint Dewpoint Depression Visibility Wind Speed Wind Dir Waves Ship Positions

Syosyun

Last reported at 2014-Jul-22 02:23 UTC. Time now 2014-Jul-22 15:29 UTC.
Position N 34°58' E 139°24'.

Length 74 m; draft 4.2 m.

Type: Cargo ship. MMSI: 431000201.

Date/timePositionNaut miles runAvg speedWind from/ knotsBaromVisibWave heightAir tempDewpointWater temp
2014-Jul-22 02:23N 34°58' E 139°24'8 9.1
2014-Jul-22 01:33N 35°02' E 139°32'1010.5
2014-Jul-22 00:33N 35°08' E 139°42'10 9.9
2014-Jul-21 23:33N 35°17' E 139°44'8 8.3
2014-Jul-21 22:33N 35°26' E 139°47'6 5.6
2014-Jul-21 21:32N 35°21' E 139°51'0 0.0
2014-Jul-21 20:32N 35°21' E 139°51'0 0.0
2014-Jul-21 20:11N 35°21' E 139°51'0 0.0
2014-Jul-21 19:32N 35°21' E 139°51'0 0.0
2014-Jul-21 18:32N 35°21' E 139°51'0 0.0
2014-Jul-21 17:26N 35°21' E 139°51'0 0.0
2014-Jul-21 16:32N 35°21' E 139°51'0 0.0
2014-Jul-21 15:20N 35°21' E 139°51'0 0.0
2014-Jul-21 12:29N 35°21' E 139°51'0 0.0
2014-Jul-21 11:32N 35°21' E 139°51'0 0.0
2014-Jul-21 10:11N 35°21' E 139°51'0 0.0
2014-Jul-21 09:26N 35°21' E 139°51'0 0.0
2014-Jul-21 08:29N 35°21' E 139°51'0 0.0
2014-Jul-21 07:32N 35°21' E 139°51'0 0.0
2014-Jul-21 06:32N 35°21' E 139°51'0 0.0
2014-Jul-21 05:32N 35°21' E 139°51'0 0.0
2014-Jul-21 04:32N 35°21' E 139°51'0 0.0
2014-Jul-21 03:32N 35°21' E 139°51'0 0.0
2014-Jul-21 02:32N 35°21' E 139°51'0 0.0
2014-Jul-21 01:32N 35°21' E 139°51'0 0.0
2014-Jul-21 00:26N 35°21' E 139°51'0 0.0
2014-Jul-20 23:32N 35°21' E 139°51'0 0.0
2014-Jul-20 22:32N 35°21' E 139°51'0 0.0
2014-Jul-20 21:32N 35°21' E 139°51'0 0.0
2014-Jul-20 20:32N 35°21' E 139°51'0 0.0
2014-Jul-20 19:32N 35°21' E 139°51'0 0.0
2014-Jul-20 18:32N 35°21' E 139°51'0 0.0
2014-Jul-20 17:32N 35°21' E 139°51'0 0.0
2014-Jul-20 16:32N 35°21' E 139°51'0 0.0
2014-Jul-20 15:14N 35°21' E 139°51'0 0.0
2014-Jul-20 14:32N 35°21' E 139°51'0 0.0
2014-Jul-20 13:32N 35°21' E 139°51'0 0.0
2014-Jul-20 12:32N 35°21' E 139°51'0 0.0
2014-Jul-20 11:26N 35°21' E 139°51'0 0.0
2014-Jul-20 10:32N 35°21' E 139°51'0 0.0
2014-Jul-20 09:32N 35°21' E 139°51'0 0.0
2014-Jul-20 08:32N 35°21' E 139°51'0 0.0
2014-Jul-20 07:32N 35°21' E 139°51'0 0.0
2014-Jul-20 06:32N 35°21' E 139°51'0 0.0
2014-Jul-20 05:32N 35°21' E 139°51'0 0.0
2014-Jul-20 04:32N 35°21' E 139°51'0 0.0
2014-Jul-20 03:32N 35°21' E 139°51'0 0.0
2014-Jul-20 02:32N 35°21' E 139°51'0 0.0
2014-Jul-20 01:29N 35°21' E 139°51'0 0.0
2014-Jul-20 00:29N 35°21' E 139°51'0 0.0
2014-Jul-19 23:26N 35°21' E 139°51'0 0.0
2014-Jul-19 22:32N 35°21' E 139°51'0 0.0
2014-Jul-19 19:26N 35°21' E 139°51'0 0.0
2014-Jul-19 18:26N 35°21' E 139°51'0 0.0
2014-Jul-19 17:32N 35°21' E 139°51'0 0.0
2014-Jul-19 16:32N 35°21' E 139°51'0 0.0
2014-Jul-19 15:32N 35°21' E 139°51'0 0.0
2014-Jul-19 14:32N 35°21' E 139°51'2 1.6
2014-Jul-19 13:33N 35°22' E 139°53'0 0.0
2014-Jul-19 12:33N 35°22' E 139°53'0 0.0
2014-Jul-19 11:33N 35°22' E 139°53'0 0.0
2014-Jul-19 10:33N 35°22' E 139°53'0 0.0
2014-Jul-19 09:33N 35°22' E 139°53'0 0.0
2014-Jul-19 08:33N 35°22' E 139°53'0 0.0
2014-Jul-19 07:27N 35°22' E 139°53'6 7.0
2014-Jul-19 06:33N 35°28' E 139°54'1211.7
2014-Jul-19 05:33N 35°36' E 140°05'1 0.9
2014-Jul-19 04:33N 35°37' E 140°05'1 1.0
2014-Jul-19 03:33N 35°36' E 140°05'9 8.8
2014-Jul-19 02:33N 35°35' E 139°54'3 0.8
2014-Jul-18 22:33N 35°36' E 139°51'6 5.6
2014-Jul-18 21:33N 35°30' E 139°52'1010.0
2014-Jul-18 20:33N 35°22' E 139°45'9 9.0
2014-Jul-18 19:33N 35°13' E 139°47'9 9.1
2014-Jul-18 18:33N 35°04' E 139°45'10 9.7
2014-Jul-18 17:33N 34°56' E 139°37'  
Track history (hours):
 
Tides and Currents Weather Stations Pressure Air Temp Water Temp Dewpoint Dewpoint Depression Visibility Wind Speed Wind Dir Waves Ship Positions

Syosyun

Last reported at 2014-Jul-22 02:23 UTC. Time now 2014-Jul-22 15:29 UTC.
Position N 34°58' E 139°24'.

Length 74 m; draft 4.2 m.

Type: Cargo ship. MMSI: 431000201.

Date/timePositionNaut miles runAvg speedWind from/ knotsBaromVisibWave heightAir tempDewpointWater temp
2014-Jul-22 02:23N 34°58' E 139°24'8 9.1
2014-Jul-22 01:33N 35°02' E 139°32'1010.5
2014-Jul-22 00:33N 35°08' E 139°42'10 9.9
2014-Jul-21 23:33N 35°17' E 139°44'8 8.3
2014-Jul-21 22:33N 35°26' E 139°47'6 5.6
2014-Jul-21 21:32N 35°21' E 139°51'0 0.0
2014-Jul-21 20:32N 35°21' E 139°51'0 0.0
2014-Jul-21 20:11N 35°21' E 139°51'0 0.0
2014-Jul-21 19:32N 35°21' E 139°51'0 0.0
2014-Jul-21 18:32N 35°21' E 139°51'0 0.0
2014-Jul-21 17:26N 35°21' E 139°51'0 0.0
2014-Jul-21 16:32N 35°21' E 139°51'0 0.0
2014-Jul-21 15:20N 35°21' E 139°51'0 0.0
2014-Jul-21 12:29N 35°21' E 139°51'0 0.0
2014-Jul-21 11:32N 35°21' E 139°51'0 0.0
2014-Jul-21 10:11N 35°21' E 139°51'0 0.0
2014-Jul-21 09:26N 35°21' E 139°51'0 0.0
2014-Jul-21 08:29N 35°21' E 139°51'0 0.0
2014-Jul-21 07:32N 35°21' E 139°51'0 0.0
2014-Jul-21 06:32N 35°21' E 139°51'0 0.0
2014-Jul-21 05:32N 35°21' E 139°51'0 0.0
2014-Jul-21 04:32N 35°21' E 139°51'0 0.0
2014-Jul-21 03:32N 35°21' E 139°51'0 0.0
2014-Jul-21 02:32N 35°21' E 139°51'0 0.0
2014-Jul-21 01:32N 35°21' E 139°51'0 0.0
2014-Jul-21 00:26N 35°21' E 139°51'0 0.0
2014-Jul-20 23:32N 35°21' E 139°51'0 0.0
2014-Jul-20 22:32N 35°21' E 139°51'0 0.0
2014-Jul-20 21:32N 35°21' E 139°51'0 0.0
2014-Jul-20 20:32N 35°21' E 139°51'0 0.0
2014-Jul-20 19:32N 35°21' E 139°51'0 0.0
2014-Jul-20 18:32N 35°21' E 139°51'0 0.0
2014-Jul-20 17:32N 35°21' E 139°51'0 0.0
2014-Jul-20 16:32N 35°21' E 139°51'0 0.0
2014-Jul-20 15:14N 35°21' E 139°51'0 0.0
2014-Jul-20 14:32N 35°21' E 139°51'0 0.0
2014-Jul-20 13:32N 35°21' E 139°51'0 0.0
2014-Jul-20 12:32N 35°21' E 139°51'0 0.0
2014-Jul-20 11:26N 35°21' E 139°51'0 0.0
2014-Jul-20 10:32N 35°21' E 139°51'0 0.0
2014-Jul-20 09:32N 35°21' E 139°51'0 0.0
2014-Jul-20 08:32N 35°21' E 139°51'0 0.0
2014-Jul-20 07:32N 35°21' E 139°51'0 0.0
2014-Jul-20 06:32N 35°21' E 139°51'0 0.0
2014-Jul-20 05:32N 35°21' E 139°51'0 0.0
2014-Jul-20 04:32N 35°21' E 139°51'0 0.0
2014-Jul-20 03:32N 35°21' E 139°51'0 0.0
2014-Jul-20 02:32N 35°21' E 139°51'0 0.0
2014-Jul-20 01:29N 35°21' E 139°51'0 0.0
2014-Jul-20 00:29N 35°21' E 139°51'0 0.0
2014-Jul-19 23:26N 35°21' E 139°51'0 0.0
2014-Jul-19 22:32N 35°21' E 139°51'0 0.0
2014-Jul-19 19:26N 35°21' E 139°51'0 0.0
2014-Jul-19 18:26N 35°21' E 139°51'0 0.0
2014-Jul-19 17:32N 35°21' E 139°51'0 0.0
2014-Jul-19 16:32N 35°21' E 139°51'0 0.0
2014-Jul-19 15:32N 35°21' E 139°51'0 0.0
2014-Jul-19 14:32N 35°21' E 139°51'2 1.6
2014-Jul-19 13:33N 35°22' E 139°53'0 0.0
2014-Jul-19 12:33N 35°22' E 139°53'0 0.0
2014-Jul-19 11:33N 35°22' E 139°53'0 0.0
2014-Jul-19 10:33N 35°22' E 139°53'0 0.0
2014-Jul-19 09:33N 35°22' E 139°53'0 0.0
2014-Jul-19 08:33N 35°22' E 139°53'0 0.0
2014-Jul-19 07:27N 35°22' E 139°53'6 7.0
2014-Jul-19 06:33N 35°28' E 139°54'1211.7
2014-Jul-19 05:33N 35°36' E 140°05'1 0.9
2014-Jul-19 04:33N 35°37' E 140°05'1 1.0
2014-Jul-19 03:33N 35°36' E 140°05'9 8.8
2014-Jul-19 02:33N 35°35' E 139°54'3 0.8
2014-Jul-18 22:33N 35°36' E 139°51'6 5.6
2014-Jul-18 21:33N 35°30' E 139°52'1010.0
2014-Jul-18 20:33N 35°22' E 139°45'9 9.0
2014-Jul-18 19:33N 35°13' E 139°47'9 9.1
2014-Jul-18 18:33N 35°04' E 139°45'10 9.7
2014-Jul-18 17:33N 34°56' E 139°37'  

Dump ship's entire track history